PWSweather.com
Personal Weather Stations
Station Observations
INORDPAS37
Bondues, BonduesFR 59910

BonduesBonduesFR 59910

Lat: 50.7, Lon: 3.09

Elevation: 102

Station Type: Netatmo

http://bondues.meteoamikuze.com

High Low Average
Temperature 44.2°F6.8°C 39.2°F4.0°C 41.8°F5.4°C
Dew Point 34.5°F1.4°C 28.9°F-1.7°C 31.9°F-0.1°C
Winds 4.9 mph 7.9 kmh Calm Calm 2.0 mph ESE3.2 kmh ESE
Wind Gusts 14.3 mph23.0 kmh 0.7 mph1.1 kmh 4.0 mph6.4 kmh
Humidity 74% 72% 73%
Pressure 30.03 in1016.9 mb 29.59 in1002.0 mb -
Precipitation 0.00 in0.0 mm - -
Hour Temp Dew Point Humidity Winds Wind Gusts Pressure Precip Precip Rate Daily Precip Total
12:15 AM 42.4°F5.8°C 32.0°F0.0°C 72% 2.5 mph SW4.0 kmh SW 5.6 mph9.0 kmh 29.59 in1002.0 mb 0.00 in0.0 mm 0.00 in0.0 mm 0.00 in0.0 mm
12:35 AM 41.9°F5.5°C 31.5°F-0.3°C 72% 2.5 mph SW4.0 kmh SW 6.9 mph11.1 kmh 29.59 in1002.0 mb 0.00 in0.0 mm 0.00 in0.0 mm 0.00 in0.0 mm
12:55 AM 41.5°F5.3°C 31.3°F-0.4°C 72% 3.1 mph SW5.0 kmh SW 6.9 mph11.1 kmh 29.60 in1002.4 mb 0.00 in0.0 mm 0.00 in0.0 mm 0.00 in0.0 mm
01:15 AM 41.5°F5.3°C 31.3°F-0.4°C 72% 2.5 mph SW4.0 kmh SW 5.6 mph9.0 kmh 29.60 in1002.4 mb 0.00 in0.0 mm 0.00 in0.0 mm 0.00 in0.0 mm
01:21 AM 41.4°F5.2°C 31.1°F-0.5°C 72% 1.3 mph S2.1 kmh S 3.1 mph5.0 kmh 29.60 in1002.4 mb 0.00 in0.0 mm 0.00 in0.0 mm 0.00 in0.0 mm
01:43 AM 41.0°F5.0°C 30.7°F-0.7°C 72% 1.3 mph SW2.1 kmh SW 3.8 mph6.1 kmh 29.60 in1002.4 mb 0.00 in0.0 mm 0.00 in0.0 mm 0.00 in0.0 mm
02:03 AM 40.6°F4.8°C 30.4°F-0.9°C 72% 1.8 mph S2.9 kmh S 3.1 mph5.0 kmh 29.61 in1002.7 mb 0.00 in0.0 mm 0.00 in0.0 mm 0.00 in0.0 mm
02:23 AM 40.3°F4.6°C 30.0°F-1.1°C 72% 1.3 mph S2.1 kmh S 2.5 mph4.0 kmh 29.60 in1002.4 mb 0.00 in0.0 mm 0.00 in0.0 mm 0.00 in0.0 mm
02:43 AM 39.9°F4.4°C 29.7°F-1.3°C 72% 1.3 mph S2.1 kmh S 3.1 mph5.0 kmh 29.61 in1002.7 mb 0.00 in0.0 mm 0.00 in0.0 mm 0.00 in0.0 mm
03:04 AM 39.6°F4.2°C 29.3°F-1.5°C 72% 1.3 mph S2.1 kmh S 2.5 mph4.0 kmh 29.62 in1003.0 mb 0.00 in0.0 mm 0.00 in0.0 mm 0.00 in0.0 mm
03:24 AM 39.4°F4.1°C 29.1°F-1.6°C 72% 0.7 mph SSW1.1 kmh SSW 1.8 mph2.9 kmh 29.62 in1003.0 mb 0.00 in0.0 mm 0.00 in0.0 mm 0.00 in0.0 mm
03:44 AM 39.2°F4.0°C 28.9°F-1.7°C 72% 0.7 mph SSW1.1 kmh SSW 1.3 mph2.1 kmh 29.61 in1002.7 mb 0.00 in0.0 mm 0.00 in0.0 mm 0.00 in0.0 mm
04:04 AM 39.2°F4.0°C 28.9°F-1.7°C 72% 0.7 mph SW1.1 kmh SW 1.8 mph2.9 kmh 29.62 in1003.0 mb 0.00 in0.0 mm 0.00 in0.0 mm 0.00 in0.0 mm
04:24 AM 39.4°F4.1°C 29.1°F-1.6°C 72% 0.7 mph SSW1.1 kmh SSW 1.3 mph2.1 kmh 29.62 in1003.0 mb 0.00 in0.0 mm 0.00 in0.0 mm 0.00 in0.0 mm
04:44 AM 39.4°F4.1°C 29.1°F-1.6°C 72% 0.7 mph W1.1 kmh W 1.3 mph2.1 kmh 29.62 in1003.0 mb 0.00 in0.0 mm 0.00 in0.0 mm 0.00 in0.0 mm
05:04 AM 39.4°F4.1°C 29.1°F-1.6°C 72% Calm Calm 1.3 mph2.1 kmh 29.62 in1003.0 mb 0.00 in0.0 mm 0.00 in0.0 mm 0.00 in0.0 mm
05:25 AM 39.4°F4.1°C 29.1°F-1.6°C 72% 0.7 mph SW1.1 kmh SW 1.8 mph2.9 kmh 29.63 in1003.4 mb 0.00 in0.0 mm 0.00 in0.0 mm 0.00 in0.0 mm
05:45 AM 39.6°F4.2°C 29.3°F-1.5°C 72% Calm Calm 0.7 mph1.1 kmh 29.63 in1003.4 mb 0.00 in0.0 mm 0.00 in0.0 mm 0.00 in0.0 mm
06:05 AM 39.6°F4.2°C 29.3°F-1.5°C 72% 0.7 mph SSW1.1 kmh SSW 1.8 mph2.9 kmh 29.63 in1003.4 mb 0.00 in0.0 mm 0.00 in0.0 mm 0.00 in0.0 mm
06:25 AM 39.7°F4.3°C 29.8°F-1.2°C 73% 0.7 mph SSE1.1 kmh SSE 2.5 mph4.0 kmh 29.64 in1003.7 mb 0.00 in0.0 mm 0.00 in0.0 mm 0.00 in0.0 mm
06:45 AM 39.9°F4.4°C 30.0°F-1.1°C 73% 1.3 mph S2.1 kmh S 2.5 mph4.0 kmh 29.64 in1003.7 mb 0.00 in0.0 mm 0.00 in0.0 mm 0.00 in0.0 mm
07:06 AM 40.1°F4.5°C 30.2°F-1.0°C 73% 1.3 mph SE2.1 kmh SE 2.5 mph4.0 kmh 29.64 in1003.7 mb 0.00 in0.0 mm 0.00 in0.0 mm 0.00 in0.0 mm
07:25 AM 40.3°F4.6°C 30.4°F-0.9°C 73% 1.3 mph S2.1 kmh S 2.5 mph4.0 kmh 29.65 in1004.1 mb 0.00 in0.0 mm 0.00 in0.0 mm 0.00 in0.0 mm
07:46 AM 40.5°F4.7°C 30.6°F-0.8°C 73% 0.7 mph SSE1.1 kmh SSE 2.5 mph4.0 kmh 29.66 in1004.4 mb 0.00 in0.0 mm 0.00 in0.0 mm 0.00 in0.0 mm
08:05 AM 40.6°F4.8°C 30.7°F-0.7°C 73% 0.7 mph S1.1 kmh S 1.3 mph2.1 kmh 29.67 in1004.7 mb 0.00 in0.0 mm 0.00 in0.0 mm 0.00 in0.0 mm
08:26 AM 40.6°F4.8°C 30.7°F-0.7°C 73% 0.7 mph S1.1 kmh S 1.3 mph2.1 kmh 29.67 in1004.7 mb 0.00 in0.0 mm 0.00 in0.0 mm 0.00 in0.0 mm
08:46 AM 40.5°F4.7°C 30.6°F-0.8°C 73% 0.7 mph SE1.1 kmh SE 1.8 mph2.9 kmh 29.68 in1005.1 mb 0.00 in0.0 mm 0.00 in0.0 mm 0.00 in0.0 mm
09:06 AM 40.5°F4.7°C 30.6°F-0.8°C 73% 0.7 mph SW1.1 kmh SW 1.3 mph2.1 kmh 29.69 in1005.4 mb 0.00 in0.0 mm 0.00 in0.0 mm 0.00 in0.0 mm
09:27 AM 40.3°F4.6°C 30.4°F-0.9°C 73% Calm Calm 1.3 mph2.1 kmh 29.70 in1005.8 mb 0.00 in0.0 mm 0.00 in0.0 mm 0.00 in0.0 mm
09:46 AM 40.1°F4.5°C 30.2°F-1.0°C 73% Calm Calm 1.3 mph2.1 kmh 29.71 in1006.1 mb 0.00 in0.0 mm 0.00 in0.0 mm 0.00 in0.0 mm
10:07 AM 40.3°F4.6°C 30.7°F-0.7°C 74% 0.7 mph SW1.1 kmh SW 1.3 mph2.1 kmh 29.71 in1006.1 mb 0.00 in0.0 mm 0.00 in0.0 mm 0.00 in0.0 mm
10:27 AM 40.6°F4.8°C 31.1°F-0.5°C 74% 0.7 mph NNE1.1 kmh NNE 1.8 mph2.9 kmh 29.72 in1006.4 mb 0.00 in0.0 mm 0.00 in0.0 mm 0.00 in0.0 mm
10:47 AM 41.2°F5.1°C 31.6°F-0.2°C 74% 0.7 mph NE1.1 kmh NE 1.8 mph2.9 kmh 29.74 in1007.1 mb 0.00 in0.0 mm 0.00 in0.0 mm 0.00 in0.0 mm
11:07 AM 41.7°F5.4°C 32.2°F0.1°C 74% 0.7 mph NNE1.1 kmh NNE 1.8 mph2.9 kmh 29.75 in1007.5 mb 0.00 in0.0 mm 0.00 in0.0 mm 0.00 in0.0 mm
11:27 AM 42.3°F5.7°C 32.7°F0.4°C 74% 0.7 mph NNW1.1 kmh NNW 1.8 mph2.9 kmh 29.75 in1007.5 mb 0.00 in0.0 mm 0.00 in0.0 mm 0.00 in0.0 mm
11:48 AM 42.8°F6.0°C 33.1°F0.6°C 74% 0.7 mph NW1.1 kmh NW 1.8 mph2.9 kmh 29.75 in1007.5 mb 0.00 in0.0 mm 0.00 in0.0 mm 0.00 in0.0 mm
12:07 PM 43.3°F6.3°C 33.6°F0.9°C 74% 0.7 mph N1.1 kmh N 1.8 mph2.9 kmh 29.76 in1007.8 mb 0.00 in0.0 mm 0.00 in0.0 mm 0.00 in0.0 mm
12:28 PM 43.9°F6.6°C 34.2°F1.2°C 74% 1.3 mph NNE2.1 kmh NNE 3.8 mph6.1 kmh 29.76 in1007.8 mb 0.00 in0.0 mm 0.00 in0.0 mm 0.00 in0.0 mm
12:48 PM 43.9°F6.6°C 34.2°F1.2°C 74% 1.8 mph NE2.9 kmh NE 3.8 mph6.1 kmh 29.77 in1008.1 mb 0.00 in0.0 mm 0.00 in0.0 mm 0.00 in0.0 mm
01:08 PM 44.1°F6.7°C 34.3°F1.3°C 74% 0.7 mph N1.1 kmh N 3.1 mph5.0 kmh 29.77 in1008.1 mb 0.00 in0.0 mm 0.00 in0.0 mm 0.00 in0.0 mm
01:28 PM 44.2°F6.8°C 34.5°F1.4°C 74% 1.3 mph N2.1 kmh N 3.1 mph5.0 kmh 29.77 in1008.1 mb 0.00 in0.0 mm 0.00 in0.0 mm 0.00 in0.0 mm
01:48 PM 44.1°F6.7°C 34.3°F1.3°C 74% 1.3 mph N2.1 kmh N 3.1 mph5.0 kmh 29.78 in1008.5 mb 0.00 in0.0 mm 0.00 in0.0 mm 0.00 in0.0 mm
02:09 PM 44.1°F6.7°C 34.3°F1.3°C 74% 1.3 mph N2.1 kmh N 3.1 mph5.0 kmh 29.78 in1008.5 mb 0.00 in0.0 mm 0.00 in0.0 mm 0.00 in0.0 mm
02:29 PM 44.1°F6.7°C 34.3°F1.3°C 74% 1.3 mph NNE2.1 kmh NNE 3.1 mph5.0 kmh 29.79 in1008.8 mb 0.00 in0.0 mm 0.00 in0.0 mm 0.00 in0.0 mm
02:49 PM 43.9°F6.6°C 34.2°F1.2°C 74% 1.3 mph N2.1 kmh N 4.3 mph6.9 kmh 29.79 in1008.8 mb 0.00 in0.0 mm 0.00 in0.0 mm 0.00 in0.0 mm
03:09 PM 43.9°F6.6°C 34.2°F1.2°C 74% 1.8 mph NNE2.9 kmh NNE 3.8 mph6.1 kmh 29.80 in1009.1 mb 0.00 in0.0 mm 0.00 in0.0 mm 0.00 in0.0 mm
03:29 PM 43.7°F6.5°C 34.0°F1.1°C 74% 1.8 mph NNE2.9 kmh NNE 4.3 mph6.9 kmh 29.80 in1009.1 mb 0.00 in0.0 mm 0.00 in0.0 mm 0.00 in0.0 mm
03:55 PM 43.7°F6.5°C 34.0°F1.1°C 74% 2.5 mph NE4.0 kmh NE 7.4 mph11.9 kmh 29.81 in1009.5 mb 0.00 in0.0 mm 0.00 in0.0 mm 0.00 in0.0 mm
04:15 PM 43.7°F6.5°C 34.0°F1.1°C 74% 2.5 mph NNE4.0 kmh NNE 5.6 mph9.0 kmh 29.82 in1009.8 mb 0.00 in0.0 mm 0.00 in0.0 mm 0.00 in0.0 mm
04:35 PM 43.5°F6.4°C 33.8°F1.0°C 74% 0.7 mph NE1.1 kmh NE 3.1 mph5.0 kmh 29.82 in1009.8 mb 0.00 in0.0 mm 0.00 in0.0 mm 0.00 in0.0 mm
04:55 PM 43.5°F6.4°C 33.8°F1.0°C 74% 1.3 mph NE2.1 kmh NE 4.9 mph7.9 kmh 29.83 in1010.2 mb 0.00 in0.0 mm 0.00 in0.0 mm 0.00 in0.0 mm
05:15 PM 43.3°F6.3°C 33.6°F0.9°C 74% 2.5 mph NNE4.0 kmh NNE 5.6 mph9.0 kmh 29.84 in1010.5 mb 0.00 in0.0 mm 0.00 in0.0 mm 0.00 in0.0 mm
05:35 PM 43.2°F6.2°C 33.4°F0.8°C 74% 2.5 mph NNE4.0 kmh NNE 8.1 mph13.0 kmh 29.85 in1010.8 mb 0.00 in0.0 mm 0.00 in0.0 mm 0.00 in0.0 mm
05:55 PM 43.2°F6.2°C 33.4°F0.8°C 74% 3.1 mph NE5.0 kmh NE 5.6 mph9.0 kmh 29.86 in1011.2 mb 0.00 in0.0 mm 0.00 in0.0 mm 0.00 in0.0 mm
06:15 PM 43.2°F6.2°C 33.4°F0.8°C 74% 3.8 mph NNE6.1 kmh NNE 7.4 mph11.9 kmh 29.87 in1011.5 mb 0.00 in0.0 mm 0.00 in0.0 mm 0.00 in0.0 mm
06:21 PM 43.0°F6.1°C 33.3°F0.7°C 74% 2.5 mph NNE4.0 kmh NNE 7.4 mph11.9 kmh 29.87 in1011.5 mb 0.00 in0.0 mm 0.00 in0.0 mm 0.00 in0.0 mm
06:55 PM 43.0°F6.1°C 33.3°F0.7°C 74% 2.5 mph NE4.0 kmh NE 4.3 mph6.9 kmh 29.89 in1012.2 mb 0.00 in0.0 mm 0.00 in0.0 mm 0.00 in0.0 mm
07:08 PM 42.8°F6.0°C 33.1°F0.6°C 74% 2.5 mph NE4.0 kmh NE 7.4 mph11.9 kmh 29.90 in1012.5 mb 0.00 in0.0 mm 0.00 in0.0 mm 0.00 in0.0 mm
07:28 PM 42.8°F6.0°C 33.1°F0.6°C 74% 3.8 mph NE6.1 kmh NE 9.4 mph15.1 kmh 29.91 in1012.9 mb 0.00 in0.0 mm 0.00 in0.0 mm 0.00 in0.0 mm
07:49 PM 42.8°F6.0°C 33.1°F0.6°C 74% 3.1 mph NE5.0 kmh NE 9.8 mph15.8 kmh 29.92 in1013.2 mb 0.00 in0.0 mm 0.00 in0.0 mm 0.00 in0.0 mm
08:08 PM 42.8°F6.0°C 33.1°F0.6°C 74% 3.1 mph NNE5.0 kmh NNE 7.4 mph11.9 kmh 29.93 in1013.5 mb 0.00 in0.0 mm 0.00 in0.0 mm 0.00 in0.0 mm
08:29 PM 42.8°F6.0°C 33.1°F0.6°C 74% 3.8 mph NNE6.1 kmh NNE 7.4 mph11.9 kmh 29.94 in1013.9 mb 0.00 in0.0 mm 0.00 in0.0 mm 0.00 in0.0 mm
08:49 PM 42.8°F6.0°C 33.1°F0.6°C 74% 4.9 mph NE7.9 kmh NE 12.5 mph20.1 kmh 29.95 in1014.2 mb 0.00 in0.0 mm 0.00 in0.0 mm 0.00 in0.0 mm
09:09 PM 42.6°F5.9°C 33.1°F0.6°C 74% 3.8 mph NE6.1 kmh NE 8.7 mph14.0 kmh 29.96 in1014.6 mb 0.00 in0.0 mm 0.00 in0.0 mm 0.00 in0.0 mm
09:35 PM 42.6°F5.9°C 33.1°F0.6°C 74% 3.8 mph NNE6.1 kmh NNE 8.7 mph14.0 kmh 29.97 in1014.9 mb 0.00 in0.0 mm 0.00 in0.0 mm 0.00 in0.0 mm
09:55 PM 42.6°F5.9°C 33.1°F0.6°C 74% 3.8 mph NE6.1 kmh NE 6.9 mph11.1 kmh 29.98 in1015.2 mb 0.00 in0.0 mm 0.00 in0.0 mm 0.00 in0.0 mm
10:15 PM 42.4°F5.8°C 32.9°F0.5°C 74% 4.3 mph NE6.9 kmh NE 14.3 mph23.0 kmh 29.99 in1015.6 mb 0.00 in0.0 mm 0.00 in0.0 mm 0.00 in0.0 mm
10:35 PM 42.4°F5.8°C 32.9°F0.5°C 74% 4.3 mph NE6.9 kmh NE 9.4 mph15.1 kmh 29.99 in1015.6 mb 0.00 in0.0 mm 0.00 in0.0 mm 0.00 in0.0 mm
10:55 PM 42.3°F5.7°C 32.7°F0.4°C 74% 4.3 mph NE6.9 kmh NE 11.2 mph18.0 kmh 30.00 in1015.9 mb 0.00 in0.0 mm 0.00 in0.0 mm 0.00 in0.0 mm
11:15 PM 42.1°F5.6°C 32.5°F0.3°C 74% 4.3 mph NE6.9 kmh NE 9.8 mph15.8 kmh 30.01 in1016.3 mb 0.00 in0.0 mm 0.00 in0.0 mm 0.00 in0.0 mm
11:21 PM 41.9°F5.5°C 32.4°F0.2°C 74% 2.5 mph NNE4.0 kmh NNE 7.4 mph11.9 kmh 30.02 in1016.6 mb 0.00 in0.0 mm 0.00 in0.0 mm 0.00 in0.0 mm
11:41 PM 41.7°F5.4°C 32.2°F0.1°C 74% 3.1 mph NE5.0 kmh NE 6.9 mph11.1 kmh 30.03 in1016.9 mb 0.00 in0.0 mm 0.00 in0.0 mm 0.00 in0.0 mm